createdAt,value
2023-06-17T00:00:18.731Z,95326.00
2023-06-17T00:01:18.460Z,95320.00
2023-06-17T00:02:18.460Z,95322.00
2023-06-17T00:03:18.485Z,95324.00
2023-06-17T00:04:18.495Z,95320.00
2023-06-17T00:05:18.509Z,95320.00
2023-06-17T00:06:18.533Z,95318.00
2023-06-17T00:07:18.546Z,95318.00
2023-06-17T00:08:18.566Z,95316.00
2023-06-17T00:09:18.581Z,95315.00
2023-06-17T00:10:18.980Z,95316.00
2023-06-17T00:11:18.631Z,95315.00
2023-06-17T00:12:18.684Z,95313.00
2023-06-17T00:13:18.671Z,95315.00
2023-06-17T00:14:18.708Z,95315.00
2023-06-17T00:15:18.761Z,95315.00
2023-06-17T00:16:18.748Z,95315.00
2023-06-17T00:17:18.800Z,95316.00
2023-06-17T00:18:18.817Z,95315.00
2023-06-17T00:19:18.869Z,95313.00
2023-06-17T00:20:19.360Z,95311.00
2023-06-17T00:21:18.880Z,95313.00
2023-06-17T00:22:18.915Z,95313.00
2023-06-17T00:23:18.939Z,95313.00
2023-06-17T00:24:19.132Z,95313.00
2023-06-17T00:25:18.985Z,95315.00
2023-06-17T00:26:19.014Z,95315.00
2023-06-17T00:27:19.038Z,95315.00
2023-06-17T00:28:19.101Z,95315.00
2023-06-17T00:29:19.110Z,95311.00
2023-06-17T00:30:19.335Z,95315.00
2023-06-17T00:31:19.168Z,95313.00
2023-06-17T00:32:19.196Z,95316.00
2023-06-17T00:33:19.213Z,95315.00
2023-06-17T00:34:19.286Z,95315.00
2023-06-17T00:35:19.267Z,95315.00
2023-06-17T00:36:19.286Z,95315.00
2023-06-17T00:37:19.317Z,95313.00
2023-06-17T00:38:19.356Z,95311.00
2023-06-17T00:39:19.374Z,95309.00
2023-06-17T00:40:19.712Z,95311.00
2023-06-17T00:41:19.444Z,95311.00
2023-06-17T00:42:19.454Z,95311.00
2023-06-17T00:43:19.481Z,95311.00
2023-06-17T00:44:19.551Z,95309.00
2023-06-17T00:45:19.544Z,95307.00
2023-06-17T00:46:19.639Z,95311.00
2023-06-17T00:47:19.614Z,95309.00
2023-06-17T00:48:19.689Z,95309.00
2023-06-17T00:49:19.677Z,95311.00
2023-06-17T00:50:20.027Z,95305.00
2023-06-17T00:51:19.727Z,95305.00
2023-06-17T00:52:39.652Z,95305.00
2023-06-17T00:53:19.772Z,95305.00
2023-06-17T00:54:19.747Z,95305.00
2023-06-17T00:55:19.764Z,95303.00
2023-06-17T00:56:19.738Z,95305.00
2023-06-17T00:57:19.731Z,95303.00
2023-06-17T00:58:19.721Z,95301.00
2023-06-17T00:59:19.711Z,95301.00
2023-06-17T01:00:20.250Z,95297.00
2023-06-17T01:01:19.695Z,95299.00
2023-06-17T01:02:19.695Z,95295.00
2023-06-17T01:03:19.791Z,95295.00
2023-06-17T01:04:19.677Z,95291.00
2023-06-17T01:05:19.668Z,95293.00
2023-06-17T01:06:19.687Z,95289.00
2023-06-17T01:07:19.651Z,95289.00
2023-06-17T01:08:19.651Z,95291.00
2023-06-17T01:09:19.642Z,95289.00
2023-06-17T01:10:20.032Z,95287.00
2023-06-17T01:11:19.636Z,95287.00
2023-06-17T01:12:19.618Z,95287.00
2023-06-17T01:13:19.621Z,95285.00
2023-06-17T01:14:19.609Z,95283.00
2023-06-17T01:15:19.616Z,95281.00
2023-06-17T01:16:19.737Z,95283.00
2023-06-17T01:17:19.582Z,95281.00
2023-06-17T01:18:19.603Z,95281.00
2023-06-17T01:19:19.695Z,95281.00
2023-06-17T01:20:19.989Z,95281.00
2023-06-17T01:21:19.714Z,95283.00
2023-06-17T01:22:19.741Z,95285.00
2023-06-17T01:23:19.861Z,95281.00
2023-06-17T01:24:19.878Z,95281.00
2023-06-17T01:25:19.846Z,95273.00
2023-06-17T01:26:19.880Z,95279.00
2023-06-17T01:27:21.534Z,95271.00
2023-06-17T01:28:19.912Z,95269.00
2023-06-17T01:29:19.903Z,95271.00
2023-06-17T01:30:20.120Z,95271.00
2023-06-17T01:31:19.900Z,95269.00
2023-06-17T01:32:19.920Z,95266.00
2023-06-17T01:33:19.880Z,95268.00
2023-06-17T01:34:19.867Z,95269.00
2023-06-17T01:35:19.863Z,95271.00
2023-06-17T01:36:19.855Z,95271.00
2023-06-17T01:37:19.846Z,95275.00
2023-06-17T01:38:19.850Z,95271.00
2023-06-17T01:39:19.842Z,95271.00
2023-06-17T01:40:20.112Z,95273.00
2023-06-17T01:41:19.818Z,95275.00
2023-06-17T01:42:19.824Z,95277.00
2023-06-17T01:43:19.808Z,95275.00
2023-06-17T01:44:19.806Z,95273.00
2023-06-17T01:45:19.799Z,95271.00
2023-06-17T01:46:19.858Z,95271.00
2023-06-17T01:47:19.779Z,95273.00
2023-06-17T01:48:19.803Z,95273.00
2023-06-17T01:49:19.759Z,95275.00
2023-06-17T01:50:20.326Z,95275.00
2023-06-17T01:51:19.743Z,95277.00
2023-06-17T01:52:19.739Z,95277.00
2023-06-17T01:53:19.737Z,95279.00
2023-06-17T01:54:19.727Z,95279.00
2023-06-17T01:55:19.730Z,95277.00
2023-06-17T01:56:19.735Z,95275.00
2023-06-17T01:57:19.774Z,95275.00
2023-06-17T01:58:19.813Z,95273.00
2023-06-17T01:59:19.846Z,95275.00
2023-06-17T02:00:20.164Z,95277.00
2023-06-17T02:01:19.934Z,95277.00
2023-06-17T02:02:19.975Z,95277.00
2023-06-17T02:03:20.134Z,95277.00
2023-06-17T02:04:20.083Z,95277.00
2023-06-17T02:05:20.078Z,95275.00
2023-06-17T02:06:20.114Z,95277.00
2023-06-17T02:07:20.160Z,95279.00
2023-06-17T02:08:20.206Z,95279.00
2023-06-17T02:09:20.244Z,95281.00
2023-06-17T02:10:20.514Z,95281.00
2023-06-17T02:11:20.289Z,95279.00
2023-06-17T02:12:20.349Z,95281.00
2023-06-17T02:13:20.375Z,95277.00
2023-06-17T02:14:20.401Z,95277.00
2023-06-17T02:15:20.440Z,95275.00
2023-06-17T02:16:20.498Z,95279.00
2023-06-17T02:17:20.508Z,95281.00
2023-06-17T02:18:20.547Z,95277.00
2023-06-17T02:19:20.576Z,95277.00
2023-06-17T02:20:20.848Z,95275.00
2023-06-17T02:21:20.652Z,95275.00
2023-06-17T02:22:20.716Z,95273.00
2023-06-17T02:23:20.723Z,95275.00
2023-06-17T02:24:20.770Z,95277.00
2023-06-17T02:25:20.791Z,95277.00
2023-06-17T02:26:20.830Z,95277.00
2023-06-17T02:27:20.866Z,95277.00
2023-06-17T02:28:20.921Z,95277.00
2023-06-17T02:29:20.945Z,95275.00
2023-06-17T02:30:21.295Z,95275.00
2023-06-17T02:31:21.102Z,95269.00
2023-06-17T02:32:21.071Z,95273.00
2023-06-17T02:33:21.115Z,95268.00
2023-06-17T02:34:21.174Z,95271.00
2023-06-17T02:35:21.197Z,95268.00
2023-06-17T02:36:21.288Z,95266.00
2023-06-17T02:37:21.278Z,95264.00
2023-06-17T02:38:21.319Z,95266.00
2023-06-17T02:39:21.373Z,95268.00
2023-06-17T02:40:21.696Z,95268.00
2023-06-17T02:41:21.450Z,95271.00
2023-06-17T02:42:22.470Z,95269.00
2023-06-17T02:43:21.521Z,95271.00
2023-06-17T02:44:21.563Z,95271.00
2023-06-17T02:45:21.591Z,95271.00
2023-06-17T02:46:21.653Z,95271.00
2023-06-17T02:47:21.977Z,95268.00
2023-06-17T02:48:21.713Z,95271.00
2023-06-17T02:49:21.749Z,95273.00
2023-06-17T02:50:21.954Z,95273.00
2023-06-17T02:51:21.826Z,95271.00
2023-06-17T02:52:21.951Z,95275.00
2023-06-17T02:53:21.900Z,95273.00
2023-06-17T02:54:21.939Z,95275.00
2023-06-17T02:55:21.985Z,95275.00
2023-06-17T02:56:22.036Z,95271.00
2023-06-17T02:57:22.080Z,95271.00
2023-06-17T02:58:22.104Z,95271.00
2023-06-17T02:59:22.142Z,95268.00
2023-06-17T03:00:22.570Z,95269.00
2023-06-17T03:01:22.341Z,95269.00
2023-06-17T03:02:22.330Z,95269.00
2023-06-17T03:03:22.374Z,95271.00
2023-06-17T03:04:22.350Z,95269.00
2023-06-17T03:05:22.383Z,95269.00
2023-06-17T03:06:22.426Z,95271.00
2023-06-17T03:07:22.475Z,95269.00
2023-06-17T03:08:22.533Z,95268.00
2023-06-17T03:09:22.552Z,95268.00
2023-06-17T03:10:22.953Z,95266.00
2023-06-17T03:11:22.627Z,95264.00
2023-06-17T03:12:22.673Z,95266.00
2023-06-17T03:13:22.726Z,95264.00
2023-06-17T03:14:22.751Z,95266.00
2023-06-17T03:15:22.794Z,95262.00
2023-06-17T03:16:22.853Z,95264.00
2023-06-17T03:17:22.911Z,95266.00
2023-06-17T03:18:22.938Z,95262.00
2023-06-17T03:19:22.975Z,95264.00
2023-06-17T03:20:23.190Z,95262.00
2023-06-17T03:21:23.047Z,95268.00
2023-06-17T03:22:23.085Z,95264.00
2023-06-17T03:23:23.142Z,95268.00
2023-06-17T03:24:23.301Z,95269.00
2023-06-17T03:25:23.212Z,95271.00
2023-06-17T03:26:23.255Z,95269.00
2023-06-17T03:27:23.296Z,95271.00
2023-06-17T03:28:23.345Z,95271.00
2023-06-17T03:29:23.387Z,95271.00
2023-06-17T03:30:23.542Z,95271.00
2023-06-17T03:31:23.510Z,95271.00
2023-06-17T03:32:23.528Z,95269.00
2023-06-17T03:33:23.996Z,95271.00
2023-06-17T03:34:23.588Z,95273.00
2023-06-17T03:35:23.639Z,95275.00
2023-06-17T03:36:23.681Z,95273.00
2023-06-17T03:37:23.721Z,95273.00
2023-06-17T03:38:23.783Z,95273.00
2023-06-17T03:39:23.795Z,95271.00
2023-06-17T03:40:23.857Z,95273.00
2023-06-17T03:41:23.874Z,95275.00
2023-06-17T03:42:23.930Z,95273.00
2023-06-17T03:43:23.980Z,95275.00
2023-06-17T03:44:24.021Z,95273.00
2023-06-17T03:45:24.073Z,95275.00
2023-06-17T03:46:24.092Z,95281.00
2023-06-17T03:47:24.210Z,95281.00
2023-06-17T03:48:24.189Z,95279.00
2023-06-17T03:49:24.230Z,95279.00
2023-06-17T03:50:24.322Z,95275.00
2023-06-17T03:51:24.310Z,95277.00
2023-06-17T03:52:24.355Z,95277.00
2023-06-17T03:53:24.392Z,95277.00
2023-06-17T03:54:24.441Z,95279.00
2023-06-17T03:55:24.520Z,95279.00
2023-06-17T03:56:24.555Z,95281.00
2023-06-17T03:57:25.495Z,95279.00
2023-06-17T03:58:24.608Z,95277.00
2023-06-17T03:59:24.644Z,95277.00
2023-06-17T04:00:24.841Z,95277.00
2023-06-17T04:01:24.742Z,95277.00
2023-06-17T04:02:24.819Z,95279.00
2023-06-17T04:03:24.916Z,95279.00
2023-06-17T04:04:24.871Z,95277.00
2023-06-17T04:05:24.887Z,95279.00
2023-06-17T04:06:24.921Z,95281.00
2023-06-17T04:07:24.945Z,95281.00
2023-06-17T04:08:25.005Z,95281.00
2023-06-17T04:09:25.035Z,95279.00
2023-06-17T04:10:25.297Z,95279.00
2023-06-17T04:11:26.001Z,95279.00
2023-06-17T04:12:25.179Z,95279.00
2023-06-17T04:13:25.209Z,95283.00
2023-06-17T04:14:25.256Z,95281.00
2023-06-17T04:15:26.024Z,95283.00
2023-06-17T04:16:25.348Z,95277.00
2023-06-17T04:17:25.438Z,95279.00
2023-06-17T04:18:25.453Z,95279.00
2023-06-17T04:19:25.479Z,95279.00
2023-06-17T04:20:25.539Z,95281.00
2023-06-17T04:21:25.569Z,95279.00
2023-06-17T04:22:25.612Z,95279.00
2023-06-17T04:23:25.777Z,95281.00
2023-06-17T04:24:26.546Z,95279.00
2023-06-17T04:25:25.763Z,95279.00
2023-06-17T04:26:25.806Z,95279.00
2023-06-17T04:27:32.531Z,95281.00
2023-06-17T04:28:25.860Z,95279.00
2023-06-17T04:29:26.505Z,95283.00
2023-06-17T04:30:25.836Z,95285.00
2023-06-17T04:31:25.827Z,95283.00
2023-06-17T04:32:25.926Z,95283.00
2023-06-17T04:33:26.007Z,95281.00
2023-06-17T04:34:25.809Z,95281.00
2023-06-17T04:35:25.845Z,95283.00
2023-06-17T04:36:25.795Z,95279.00
2023-06-17T04:37:25.785Z,95283.00
2023-06-17T04:38:25.837Z,95283.00
2023-06-17T04:39:25.777Z,95281.00
2023-06-17T04:40:25.785Z,95279.00
2023-06-17T04:41:25.768Z,95283.00
2023-06-17T04:42:25.759Z,95281.00
2023-06-17T04:43:25.818Z,95283.00
2023-06-17T04:44:25.845Z,95283.00
2023-06-17T04:45:25.897Z,95285.00
2023-06-17T04:46:26.051Z,95287.00
2023-06-17T04:47:26.051Z,95285.00
2023-06-17T04:48:26.529Z,95287.00
2023-06-17T04:49:26.105Z,95285.00
2023-06-17T04:50:26.185Z,95287.00
2023-06-17T04:51:26.211Z,95285.00
2023-06-17T04:52:26.256Z,95283.00
2023-06-17T04:53:26.517Z,95283.00
2023-06-17T04:54:26.373Z,95285.00
2023-06-17T04:55:26.424Z,95283.00
2023-06-17T04:56:26.476Z,95283.00
2023-06-17T04:57:26.538Z,95281.00
2023-06-17T04:58:26.592Z,95279.00
2023-06-17T04:59:26.694Z,95281.00
2023-06-17T05:00:27.079Z,95283.00
2023-06-17T05:01:26.842Z,95279.00
2023-06-17T05:02:26.832Z,95279.00
2023-06-17T05:03:26.930Z,95279.00
2023-06-17T05:04:26.937Z,95279.00
2023-06-17T05:05:26.999Z,95277.00
2023-06-17T05:06:27.049Z,95277.00
2023-06-17T05:07:27.105Z,95279.00
2023-06-17T05:08:34.015Z,95279.00
2023-06-17T05:09:34.018Z,95281.00
2023-06-17T05:10:27.135Z,95277.00
2023-06-17T05:11:27.532Z,95279.00
2023-06-17T05:12:27.126Z,95279.00
2023-06-17T05:13:27.111Z,95275.00
2023-06-17T05:14:27.113Z,95275.00
2023-06-17T05:15:27.134Z,95275.00
2023-06-17T05:16:27.161Z,95275.00
2023-06-17T05:17:27.109Z,95275.00
2023-06-17T05:18:27.075Z,95277.00
2023-06-17T05:19:27.079Z,95277.00
2023-06-17T05:20:27.078Z,95279.00
2023-06-17T05:21:27.133Z,95279.00
2023-06-17T05:22:27.172Z,95281.00
2023-06-17T05:23:27.227Z,95279.00
2023-06-17T05:24:27.376Z,95279.00
2023-06-17T05:25:27.324Z,95279.00
2023-06-17T05:26:27.369Z,95279.00
2023-06-17T05:27:27.443Z,95279.00
2023-06-17T05:28:27.528Z,95277.00
2023-06-17T05:29:30.529Z,95277.00
2023-06-17T05:30:27.535Z,95279.00
2023-06-17T05:31:27.578Z,95275.00
2023-06-17T05:32:27.623Z,95275.00
2023-06-17T05:33:27.498Z,95273.00
2023-06-17T05:34:27.490Z,95273.00
2023-06-17T05:35:27.480Z,95271.00
2023-06-17T05:36:27.468Z,95271.00
2023-06-17T05:37:27.477Z,95273.00
2023-06-17T05:38:27.464Z,95271.00
2023-06-17T05:39:27.478Z,95269.00
2023-06-17T05:40:27.444Z,95271.00
2023-06-17T05:41:27.438Z,95269.00
2023-06-17T05:42:27.430Z,95268.00
2023-06-17T05:43:27.425Z,95268.00
2023-06-17T05:44:27.427Z,95268.00
2023-06-17T05:45:27.407Z,95266.00
2023-06-17T05:46:27.447Z,95264.00
2023-06-17T05:47:27.456Z,95264.00
2023-06-17T05:48:27.393Z,95264.00
2023-06-17T05:49:27.387Z,95262.00
2023-06-17T05:50:27.376Z,95262.00
2023-06-17T05:51:28.036Z,95262.00
2023-06-17T05:52:28.034Z,95260.00
2023-06-17T05:53:27.356Z,95262.00
2023-06-17T05:54:27.356Z,95260.00
2023-06-17T05:55:27.340Z,95262.00
2023-06-17T05:56:27.374Z,95260.00
2023-06-17T05:57:27.420Z,95260.00
2023-06-17T05:58:27.468Z,95262.00
2023-06-17T05:59:27.510Z,95262.00
2023-06-17T06:00:42.551Z,95262.00
2023-06-17T06:01:45.734Z,95258.00
2023-06-17T06:02:46.774Z,95262.00
2023-06-17T06:03:46.713Z,95260.00
2023-06-17T06:04:46.682Z,95260.00
2023-06-17T06:05:46.679Z,95260.00
2023-06-17T06:06:46.702Z,95260.00
2023-06-17T06:07:46.668Z,95260.00
2023-06-17T06:08:46.680Z,95260.00
2023-06-17T06:09:46.656Z,95258.00
2023-06-17T06:10:46.646Z,95258.00
2023-06-17T06:11:46.633Z,95256.00
2023-06-17T06:12:46.626Z,95256.00
2023-06-17T06:13:46.641Z,95254.00
2023-06-17T06:14:49.383Z,95258.00
2023-06-17T06:15:46.623Z,95254.00
2023-06-17T06:16:46.827Z,95254.00
2023-06-17T06:17:46.643Z,95258.00
2023-06-17T06:18:46.640Z,95260.00
2023-06-17T06:19:46.590Z,95260.00
2023-06-17T06:20:46.580Z,95262.00
2023-06-17T06:21:46.569Z,95260.00
2023-06-17T06:22:46.561Z,95260.00
2023-06-17T06:23:46.887Z,95256.00
2023-06-17T06:24:46.613Z,95260.00
2023-06-17T06:25:46.547Z,95260.00
2023-06-17T06:26:46.548Z,95260.00
2023-06-17T06:27:46.529Z,95258.00
2023-06-17T06:28:46.525Z,95256.00
2023-06-17T06:29:46.515Z,95258.00
2023-06-17T06:30:46.517Z,95260.00
2023-06-17T06:31:46.518Z,95262.00
2023-06-17T06:32:47.431Z,95260.00
2023-06-17T06:33:46.495Z,95258.00
2023-06-17T06:34:49.415Z,95256.00
2023-06-17T06:35:46.473Z,95256.00
2023-06-17T06:36:46.474Z,95254.00
2023-06-17T06:37:46.461Z,95254.00
2023-06-17T06:38:46.893Z,95252.00
2023-06-17T06:39:46.464Z,95256.00
2023-06-17T06:40:46.448Z,95254.00
2023-06-17T06:41:46.448Z,95256.00
2023-06-17T06:42:46.436Z,95254.00
2023-06-17T06:43:46.429Z,95252.00
2023-06-17T06:44:46.438Z,95250.00
2023-06-17T06:45:46.458Z,95254.00
2023-06-17T06:46:46.480Z,95252.00
2023-06-17T06:47:49.496Z,95246.00
2023-06-17T06:48:46.397Z,95248.00
2023-06-17T06:49:46.407Z,95250.00
2023-06-17T06:50:46.424Z,95248.00
2023-06-17T06:51:46.436Z,95246.00
2023-06-17T06:52:46.395Z,95248.00
2023-06-17T06:53:46.415Z,95244.00
2023-06-17T06:54:46.895Z,95242.00
2023-06-17T06:55:46.351Z,95244.00
2023-06-17T06:56:46.335Z,95244.00
2023-06-17T06:57:46.333Z,95246.00
2023-06-17T06:58:46.348Z,95244.00
2023-06-17T06:59:46.313Z,95246.00
2023-06-17T07:00:46.343Z,95246.00
2023-06-17T07:01:46.310Z,95244.00
2023-06-17T07:02:46.320Z,95246.00
2023-06-17T07:03:46.293Z,95242.00
2023-06-17T07:04:46.323Z,95244.00
2023-06-17T07:05:46.289Z,95242.00
2023-06-17T07:06:46.294Z,95244.00
2023-06-17T07:07:46.897Z,95242.00
2023-06-17T07:08:46.260Z,95244.00
2023-06-17T07:09:46.905Z,95248.00
2023-06-17T07:10:46.245Z,95242.00
2023-06-17T07:11:46.228Z,95248.00
2023-06-17T07:12:46.244Z,95244.00
2023-06-17T07:13:46.221Z,95248.00
2023-06-17T07:14:46.257Z,95248.00
2023-06-17T07:15:46.358Z,95248.00
2023-06-17T07:16:46.400Z,95246.00
2023-06-17T07:17:46.530Z,95252.00
2023-06-17T07:18:46.480Z,95252.00
2023-06-17T07:19:46.532Z,95250.00
2023-06-17T07:20:46.541Z,95252.00
2023-06-17T07:21:46.574Z,95246.00
2023-06-17T07:22:46.648Z,95244.00
2023-06-17T07:23:46.911Z,95250.00
2023-06-17T07:24:46.703Z,95244.00
2023-06-17T07:25:56.035Z,95244.00
2023-06-17T07:26:46.745Z,95246.00
2023-06-17T07:27:46.762Z,95244.00
2023-06-17T07:28:46.736Z,95248.00
2023-06-17T07:29:46.747Z,95248.00
2023-06-17T07:30:46.765Z,95246.00
2023-06-17T07:31:46.724Z,95246.00
2023-06-17T07:32:46.784Z,95242.00
2023-06-17T07:33:46.703Z,95246.00
2023-06-17T07:34:46.697Z,95244.00
2023-06-17T07:35:46.687Z,95244.00
2023-06-17T07:36:46.683Z,95244.00
2023-06-17T07:37:46.691Z,95244.00
2023-06-17T07:38:47.448Z,95240.00
2023-06-17T07:39:46.676Z,95236.00
2023-06-17T07:40:46.665Z,95238.00
2023-06-17T07:41:46.642Z,95236.00
2023-06-17T07:42:46.646Z,95234.00
2023-06-17T07:43:46.635Z,95238.00
2023-06-17T07:44:46.630Z,95236.00
2023-06-17T07:45:46.646Z,95236.00
2023-06-17T07:46:46.717Z,95236.00
2023-06-17T07:47:46.770Z,95234.00
2023-06-17T07:48:46.774Z,95228.00
2023-06-17T07:49:46.803Z,95228.00
2023-06-17T07:50:46.846Z,95228.00
2023-06-17T07:51:47.416Z,95224.00
2023-06-17T07:52:46.930Z,95224.00
2023-06-17T07:53:46.977Z,95224.00
2023-06-17T07:54:47.050Z,95224.00
2023-06-17T07:55:47.079Z,95224.00
2023-06-17T07:56:47.101Z,95224.00
2023-06-17T07:57:47.139Z,95224.00
2023-06-17T07:58:47.189Z,95221.00
2023-06-17T07:59:47.228Z,95224.00
2023-06-17T08:00:47.917Z,95226.00
2023-06-17T08:01:47.436Z,95228.00
2023-06-17T08:02:47.464Z,95228.00
2023-06-17T08:03:47.544Z,95226.00
2023-06-17T08:04:47.446Z,95226.00
2023-06-17T08:05:48.416Z,95228.00
2023-06-17T08:06:47.538Z,95226.00
2023-06-17T08:07:47.607Z,95221.00
2023-06-17T08:08:47.615Z,95219.00
2023-06-17T08:09:47.655Z,95219.00
2023-06-17T08:10:47.718Z,95215.00
2023-06-17T08:11:47.958Z,95215.00
2023-06-17T08:12:47.779Z,95217.00
2023-06-17T08:13:47.816Z,95215.00
2023-06-17T08:14:47.866Z,95217.00
2023-06-17T08:15:47.898Z,95217.00
2023-06-17T08:16:48.140Z,95217.00
2023-06-17T08:17:48.048Z,95213.00
2023-06-17T08:18:48.027Z,95211.00
2023-06-17T08:19:48.070Z,95207.00
2023-06-17T08:20:48.119Z,95207.00
2023-06-17T08:21:48.170Z,95205.00
2023-06-17T08:22:48.188Z,95201.00
2023-06-17T08:23:48.307Z,95203.00
2023-06-17T08:24:48.277Z,95201.00
2023-06-17T08:25:48.318Z,95199.00
2023-06-17T08:26:48.380Z,95201.00
2023-06-17T08:27:48.393Z,95201.00
2023-06-17T08:28:48.434Z,95201.00
2023-06-17T08:29:48.481Z,95201.00
2023-06-17T08:30:48.534Z,95199.00
2023-06-17T08:31:48.558Z,95201.00
2023-06-17T08:32:49.474Z,95199.00
2023-06-17T08:33:48.651Z,95197.00
2023-06-17T08:34:48.676Z,95197.00
2023-06-17T08:35:48.730Z,95199.00
2023-06-17T08:36:48.767Z,95197.00
2023-06-17T08:37:48.795Z,95199.00
2023-06-17T08:38:48.846Z,95197.00
2023-06-17T08:39:48.888Z,95195.00
2023-06-17T08:40:48.914Z,95193.00
2023-06-17T08:41:48.945Z,95191.00
2023-06-17T08:42:49.015Z,95191.00
2023-06-17T08:43:49.030Z,95191.00
2023-06-17T08:44:49.068Z,95193.00
2023-06-17T08:45:49.184Z,95193.00
2023-06-17T08:46:49.160Z,95193.00
2023-06-17T08:47:49.259Z,95193.00
2023-06-17T08:48:49.239Z,95191.00
2023-06-17T08:49:49.273Z,95193.00
2023-06-17T08:50:49.315Z,95193.00
2023-06-17T08:51:49.374Z,95195.00
2023-06-17T08:52:49.406Z,95195.00
2023-06-17T08:53:49.474Z,95195.00
2023-06-17T08:54:49.501Z,95197.00
2023-06-17T08:55:49.537Z,95193.00
2023-06-17T08:56:49.587Z,95191.00
2023-06-17T08:57:49.623Z,95195.00
2023-06-17T08:58:49.701Z,95195.00
2023-06-17T08:59:49.709Z,95193.00
2023-06-17T09:00:49.847Z,95191.00
2023-06-17T09:01:49.801Z,95191.00
2023-06-17T09:02:49.895Z,95191.00
2023-06-17T09:03:49.884Z,95189.00
2023-06-17T09:04:50.007Z,95191.00
2023-06-17T09:05:49.979Z,95187.00
2023-06-17T09:06:50.035Z,95189.00
2023-06-17T09:07:50.079Z,95187.00
2023-06-17T09:08:50.111Z,95187.00
2023-06-17T09:09:50.148Z,95191.00
2023-06-17T09:10:50.206Z,95189.00
2023-06-17T09:11:52.274Z,95191.00
2023-06-17T09:12:50.243Z,95189.00
2023-06-17T09:13:50.286Z,95189.00
2023-06-17T09:14:50.239Z,95189.00
2023-06-17T09:15:50.208Z,95189.00
2023-06-17T09:16:50.336Z,95187.00
2023-06-17T09:17:50.235Z,95187.00
2023-06-17T09:18:50.196Z,95183.00
2023-06-17T09:19:50.189Z,95181.00
2023-06-17T09:20:50.177Z,95179.00
2023-06-17T09:21:50.169Z,95177.00
2023-06-17T09:22:50.165Z,95175.00
2023-06-17T09:23:50.239Z,95175.00
2023-06-17T09:24:50.152Z,95174.00
2023-06-17T09:25:50.141Z,95172.00
2023-06-17T09:26:50.138Z,95172.00
2023-06-17T09:28:06.000Z,95172.00
2023-06-17T09:28:50.130Z,95168.00
2023-06-17T09:29:50.117Z,95168.00
2023-06-17T09:30:50.129Z,95172.00
2023-06-17T09:31:50.129Z,95168.00
2023-06-17T09:32:50.164Z,95168.00
2023-06-17T09:33:50.095Z,95168.00
2023-06-17T09:34:50.082Z,95166.00
2023-06-17T09:35:50.076Z,95164.00
2023-06-17T09:36:50.068Z,95166.00
2023-06-17T09:38:02.353Z,95166.00
2023-06-17T09:38:50.045Z,95166.00
2023-06-17T09:39:50.045Z,95166.00
2023-06-17T09:40:50.056Z,95168.00
2023-06-17T09:41:50.027Z,95168.00
2023-06-17T09:42:50.030Z,95164.00
2023-06-17T09:43:50.032Z,95168.00
2023-06-17T09:44:50.003Z,95168.00
2023-06-17T09:45:49.993Z,95168.00
2023-06-17T09:46:50.067Z,95166.00
2023-06-17T09:47:50.014Z,95166.00
2023-06-17T09:48:49.984Z,95166.00
2023-06-17T09:49:49.968Z,95168.00
2023-06-17T09:50:49.959Z,95162.00
2023-06-17T09:51:49.957Z,95162.00
2023-06-17T09:52:49.951Z,95166.00
2023-06-17T09:53:49.951Z,95164.00
2023-06-17T09:54:49.935Z,95162.00
2023-06-17T09:55:49.930Z,95160.00
2023-06-17T09:56:49.928Z,95162.00
2023-06-17T09:57:49.911Z,95164.00
2023-06-17T09:58:49.903Z,95162.00
2023-06-17T09:59:49.900Z,95162.00
2023-06-17T10:00:49.898Z,95160.00
2023-06-17T10:01:49.912Z,95160.00
2023-06-17T10:02:49.997Z,95160.00
2023-06-17T10:03:49.992Z,95158.00
2023-06-17T10:04:49.878Z,95160.00
2023-06-17T10:05:49.898Z,95158.00
2023-06-17T10:06:49.856Z,95156.00
2023-06-17T10:07:49.852Z,95156.00
2023-06-17T10:08:49.906Z,95154.00
2023-06-17T10:09:49.831Z,95154.00
2023-06-17T10:10:50.476Z,95152.00
2023-06-17T10:11:49.823Z,95152.00
2023-06-17T10:12:49.820Z,95152.00
2023-06-17T10:13:49.822Z,95144.00
2023-06-17T10:14:49.834Z,95144.00
2023-06-17T10:15:49.864Z,95142.00
2023-06-17T10:16:50.504Z,95142.00
2023-06-17T10:17:49.967Z,95142.00
2023-06-17T10:18:50.005Z,95144.00
2023-06-17T10:19:49.999Z,95144.00
2023-06-17T10:20:50.040Z,95142.00
2023-06-17T10:21:50.073Z,95142.00
2023-06-17T10:22:50.115Z,95142.00
2023-06-17T10:23:50.145Z,95140.00
2023-06-17T10:24:50.201Z,95140.00
2023-06-17T10:25:50.224Z,95140.00
2023-06-17T10:26:51.234Z,95136.00
2023-06-17T10:27:50.282Z,95138.00
2023-06-17T10:28:52.981Z,95138.00
2023-06-17T10:29:50.310Z,95134.00
2023-06-17T10:30:50.310Z,95134.00
2023-06-17T10:31:50.299Z,95128.00
2023-06-17T10:32:52.318Z,95130.00
2023-06-17T10:33:50.297Z,95136.00
2023-06-17T10:34:50.386Z,95126.00
2023-06-17T10:35:50.275Z,95130.00
2023-06-17T10:36:50.293Z,95130.00
2023-06-17T10:37:50.260Z,95126.00
2023-06-17T10:38:50.635Z,95126.00
2023-06-17T10:39:50.259Z,95122.00
2023-06-17T10:40:50.247Z,95122.00
2023-06-17T10:41:50.247Z,95121.00
2023-06-17T10:42:50.229Z,95119.00
2023-06-17T10:43:50.226Z,95117.00
2023-06-17T10:44:51.048Z,95117.00
2023-06-17T10:45:50.221Z,95117.00
2023-06-17T10:46:50.490Z,95119.00
2023-06-17T10:47:50.233Z,95119.00
2023-06-17T10:48:50.180Z,95111.00
2023-06-17T10:49:50.182Z,95117.00
2023-06-17T10:50:51.247Z,95111.00
2023-06-17T10:51:58.009Z,95117.00
2023-06-17T10:52:50.154Z,95111.00
2023-06-17T10:53:50.145Z,95111.00
2023-06-17T10:54:50.142Z,95111.00
2023-06-17T10:55:50.131Z,95113.00
2023-06-17T10:56:50.119Z,95113.00
2023-06-17T10:57:50.116Z,95113.00
2023-06-17T10:58:50.120Z,95113.00
2023-06-17T10:59:50.109Z,95115.00
2023-06-17T11:00:50.094Z,95111.00
2023-06-17T11:01:50.087Z,95111.00
2023-06-17T11:02:50.174Z,95111.00
2023-06-17T11:03:50.095Z,95109.00
2023-06-17T11:04:50.075Z,95109.00
2023-06-17T11:05:50.065Z,95111.00
2023-06-17T11:06:50.084Z,95109.00
2023-06-17T11:07:50.085Z,95107.00
2023-06-17T11:08:50.050Z,95105.00
2023-06-17T11:09:50.077Z,95103.00
2023-06-17T11:10:50.078Z,95101.00
2023-06-17T11:11:50.038Z,95103.00
2023-06-17T11:12:51.338Z,95103.00
2023-06-17T11:13:50.026Z,95099.00
2023-06-17T11:14:50.008Z,95099.00
2023-06-17T11:15:50.046Z,95097.00
2023-06-17T11:16:50.089Z,95097.00
2023-06-17T11:17:50.175Z,95097.00
2023-06-17T11:18:52.049Z,95095.00
2023-06-17T11:19:50.131Z,95095.00
2023-06-17T11:20:50.126Z,95095.00
2023-06-17T11:21:50.126Z,95091.00
2023-06-17T11:22:50.146Z,95093.00
2023-06-17T11:23:50.157Z,95089.00
2023-06-17T11:24:50.106Z,95089.00
2023-06-17T11:25:51.009Z,95087.00
2023-06-17T11:26:50.093Z,95085.00
2023-06-17T11:27:50.085Z,95085.00
2023-06-17T11:28:50.078Z,95087.00
2023-06-17T11:29:50.070Z,95083.00
2023-06-17T11:30:50.170Z,95083.00
2023-06-17T11:31:50.093Z,95083.00
2023-06-17T11:32:50.222Z,95081.00
2023-06-17T11:33:50.149Z,95079.00
2023-06-17T11:34:50.180Z,95077.00
2023-06-17T11:35:50.207Z,95074.00
2023-06-17T11:36:50.241Z,95074.00
2023-06-17T11:37:50.311Z,95072.00
2023-06-17T11:38:50.325Z,95072.00
2023-06-17T11:39:50.331Z,95070.00
2023-06-17T11:40:50.363Z,95066.00
2023-06-17T11:41:50.393Z,95066.00
2023-06-17T11:42:50.430Z,95060.00
2023-06-17T11:43:50.461Z,95060.00
2023-06-17T11:44:50.497Z,95060.00